»·PEaware :: PAA576 KSLC-KSNA

PAA576 :: KSLC-KSNA

FLIGHT INFORMATION

Flight Status: Arrived
Operator:
PanAm
More flights by this operator :: More flights under this callsign
Pilot: Anonymous 8274 (8274)
Aircraft: BOEING 737-200
(B732)
More flights by this aircraft type
Origin: KSLC Salt Lake City Intl
United States
Destination: KSNA John Wayne-Orange Co
United States
More flights between these airports :: More routes between these airports
Route: +FFU9 BCE J11 CORKR J76 LAS HEC KAYOH7
File this flight plan on PilotEdge
Remarks: BCE and southerly routing for Grand Canyon sightseeing
Altitude:
(Current/Filed)
30,000ft
Speed:
(Current/Filed)
438kts
Departed: 24-Nov-19 05:19 PM
Arrived: 24-Nov-19 06:59 PM
Distance/Time
Traveled:
511nm/1:40
Distance/Time
To Go:
Arrived

Flight Plot

Page will automatically refresh every two minutes.

Flight plan parsing failed; only flown route is shown


Map Options




Map Legend


Flown Route
Filed Route
Departure Airport
Arrival Airport
Navaid (VOR, NDB)
Fix

Horizontal Profiles

Position Reports

Time Latitude Longitude Heading Altitude Ground
Speed
24-Nov-19 16:47 40.787614 -111.983892 250 4236ft 0kts
24-Nov-19 16:48 40.787614 -111.983892 250 4236ft 0kts
24-Nov-19 16:49 40.787614 -111.983892 250 4236ft 0kts
24-Nov-19 16:50 40.787614 -111.983892 250 4236ft 0kts
24-Nov-19 16:51 40.787614 -111.983892 250 4236ft 0kts
24-Nov-19 16:52 40.787614 -111.983892 250 4236ft 0kts
24-Nov-19 16:53 40.787614 -111.983892 250 4236ft 0kts
24-Nov-19 16:54 40.787614 -111.983892 250 4236ft 0kts
24-Nov-19 16:55 40.787614 -111.983892 250 4236ft 0kts
24-Nov-19 16:56 40.787614 -111.983892 250 4236ft 0kts
24-Nov-19 16:58 40.787614 -111.983892 250 4236ft 0kts
24-Nov-19 16:59 40.787739 -111.983525 246 4236ft 2kts
24-Nov-19 17:00 40.787817 -111.983014 345 4236ft 0kts
24-Nov-19 17:01 40.787723 -111.983006 351 4236ft 0kts
24-Nov-19 17:02 40.787723 -111.983006 351 4236ft 0kts
24-Nov-19 17:03 40.787723 -111.983006 351 4236ft 0kts
24-Nov-19 17:04 40.787741 -111.983009 352 4236ft 1kts
24-Nov-19 17:05 40.788813 -111.982839 5 4236ft 4kts
24-Nov-19 17:06 40.789979 -111.980717 92 4236ft 9kts
24-Nov-19 17:07 40.789685 -111.978594 85 4236ft 0kts
24-Nov-19 17:08 40.789685 -111.978594 85 4236ft 0kts
24-Nov-19 17:09 40.789685 -111.978594 85 4236ft 0kts
24-Nov-19 17:10 40.789685 -111.978594 85 4236ft 0kts
24-Nov-19 17:11 40.789687 -111.978570 84 4236ft 0kts
24-Nov-19 17:12 40.790504 -111.977138 355 4236ft 7kts
24-Nov-19 17:13 40.796196 -111.977804 354 4236ft 24kts
24-Nov-19 17:13 40.802139 -111.978494 0 4236ft 25kts
24-Nov-19 17:15 40.807148 -111.978501 29 4236ft 0kts
24-Nov-19 17:16 40.807148 -111.978501 29 4236ft 0kts
24-Nov-19 17:16 40.807148 -111.978501 29 4236ft 0kts
24-Nov-19 17:17 40.807152 -111.978498 29 4236ft 0kts
24-Nov-19 17:19 40.801249 -111.976218 175 4236ft 94kts
24-Nov-19 17:19 40.767995 -111.971942 170 5196ft 155kts
24-Nov-19 17:20 40.718869 -111.960940 170 6222ft 219kts
24-Nov-19 17:21 40.653332 -111.945572 171 8307ft 261kts
24-Nov-19 17:23 40.563040 -111.925342 176 10592ft 308kts
24-Nov-19 17:23 40.486286 -111.916600 178 11672ft 354kts
24-Nov-19 17:24 40.386026 -111.912737 187 13980ft 362kts
24-Nov-19 17:25 40.285572 -111.916258 187 16394ft 362kts
24-Nov-19 17:26 40.184014 -111.916407 187 18372ft 369kts
24-Nov-19 17:27 40.082914 -111.926275 194 20319ft 362kts
24-Nov-19 17:28 39.987902 -111.964328 207 21595ft 365kts
24-Nov-19 17:29 39.890379 -112.006415 204 22710ft 381kts
24-Nov-19 17:30 39.780732 -112.008108 181 23862ft 406kts
24-Nov-19 17:31 39.668970 -112.014256 190 24796ft 408kts
24-Nov-19 17:32 39.555009 -112.028214 195 25568ft 415kts
24-Nov-19 17:33 39.440688 -112.051361 195 26399ft 420kts
24-Nov-19 17:34 39.324623 -112.073042 191 27231ft 426kts
24-Nov-19 17:35 39.205789 -112.081826 188 28029ft 430kts
24-Nov-19 17:36 39.086452 -112.088228 188 28784ft 431kts
24-Nov-19 17:37 38.967942 -112.100265 191 29739ft 423kts
24-Nov-19 17:38 38.855866 -112.114259 191 30156ft 429kts
24-Nov-19 17:39 38.734940 -112.131069 193 30148ft 442kts
24-Nov-19 17:40 38.613689 -112.156543 196 30146ft 442kts
24-Nov-19 17:41 38.493966 -112.189986 197 30146ft 443kts
24-Nov-19 17:42 38.372776 -112.219992 193 30148ft 448kts
24-Nov-19 17:43 38.248467 -112.237829 190 30163ft 449kts
24-Nov-19 17:44 38.124660 -112.254460 190 30164ft 448kts
24-Nov-19 17:45 37.999880 -112.263580 183 30164ft 452kts
24-Nov-19 17:46 37.884411 -112.260984 186 30168ft 450kts
24-Nov-19 17:47 37.760102 -112.274153 189 30201ft 447kts
24-Nov-19 17:48 37.636710 -112.288653 189 30201ft 447kts
24-Nov-19 17:49 37.513412 -112.303522 190 30200ft 446kts
24-Nov-19 17:50 37.392356 -112.333837 191 30201ft 445kts
24-Nov-19 17:51 37.268518 -112.337919 181 30201ft 449kts
24-Nov-19 17:52 37.143493 -112.333135 181 30193ft 450kts
24-Nov-19 17:53 37.018781 -112.330654 185 30192ft 449kts
24-Nov-19 17:54 36.899965 -112.343755 189 30192ft 448kts
24-Nov-19 17:55 36.791070 -112.360026 189 30192ft 448kts
24-Nov-19 17:56 36.667800 -112.379054 189 30192ft 448kts
24-Nov-19 17:57 36.543907 -112.398727 189 30192ft 448kts
24-Nov-19 17:58 36.419822 -112.409734 183 30192ft 450kts
24-Nov-19 17:59 36.294780 -112.403737 176 30192ft 451kts
24-Nov-19 18:00 36.169748 -112.394305 179 30191ft 450kts
24-Nov-19 18:01 36.054770 -112.430106 229 30189ft 436kts
24-Nov-19 18:02 36.037933 -112.569461 279 30195ft 426kts
24-Nov-19 18:03 36.061158 -112.704873 283 30192ft 425kts
24-Nov-19 18:04 36.085454 -112.847841 279 30189ft 425kts
24-Nov-19 18:05 36.087548 -112.993338 265 30175ft 427kts
24-Nov-19 18:06 36.076418 -113.139641 265 30176ft 428kts
24-Nov-19 18:07 36.065317 -113.286484 266 30176ft 429kts
24-Nov-19 18:08 36.054148 -113.433571 266 30175ft 431kts
24-Nov-19 18:09 36.055462 -113.581230 275 30172ft 431kts
24-Nov-19 18:10 36.062828 -113.719780 274 30177ft 433kts
24-Nov-19 18:11 36.070942 -113.868819 274 30174ft 434kts
24-Nov-19 18:12 36.079115 -114.017889 274 30165ft 436kts
24-Nov-19 18:13 36.084658 -114.167678 272 30148ft 438kts
24-Nov-19 18:14 36.085508 -114.318819 269 30134ft 440kts
24-Nov-19 18:15 36.081178 -114.470181 269 30137ft 441kts
24-Nov-19 18:16 36.076584 -114.621709 269 30137ft 441kts
24-Nov-19 18:17 36.075376 -114.762997 272 30135ft 441kts
24-Nov-19 18:18 36.076944 -114.914365 272 30140ft 440kts
24-Nov-19 18:19 36.078365 -115.065696 272 30130ft 439kts
24-Nov-19 18:20 36.047735 -115.206863 224 30126ft 447kts
24-Nov-19 18:21 35.943954 -115.291264 213 30134ft 448kts
24-Nov-19 18:22 35.852485 -115.381595 224 30153ft 444kts
24-Nov-19 18:23 35.763402 -115.486913 225 30155ft 443kts
24-Nov-19 18:24 35.674904 -115.591783 225 30155ft 442kts
24-Nov-19 18:25 35.586671 -115.674452 215 30156ft 443kts
24-Nov-19 18:26 35.484550 -115.759836 216 30148ft 443kts
24-Nov-19 18:27 35.386666 -115.851500 222 30116ft 443kts
24-Nov-19 18:28 35.295608 -115.952191 224 30111ft 442kts
24-Nov-19 18:29 35.207183 -116.056593 225 30114ft 442kts
24-Nov-19 18:30 35.115283 -116.156857 219 30119ft 444kts
24-Nov-19 18:31 35.015662 -116.245314 214 30119ft 445kts
24-Nov-19 18:32 34.918779 -116.331254 221 27802ft 418kts
24-Nov-19 18:33 34.850888 -116.408908 225 24793ft 409kts
24-Nov-19 18:34 34.766403 -116.494578 228 24150ft 398kts
24-Nov-19 18:35 34.692425 -116.595465 227 24177ft 401kts
24-Nov-19 18:36 34.617136 -116.690168 226 23943ft 403kts
24-Nov-19 18:37 34.539820 -116.786849 226 21705ft 389kts
24-Nov-19 18:38 34.467254 -116.877603 226 19238ft 366kts
24-Nov-19 18:39 34.397842 -116.963965 223 16634ft 353kts
24-Nov-19 18:40 34.323657 -117.039990 220 13420ft 350kts
24-Nov-19 18:41 34.249849 -117.108567 199 13068ft 319kts
24-Nov-19 18:42 34.161188 -117.121720 184 13047ft 334kts
24-Nov-19 18:43 34.068053 -117.139820 191 12995ft 342kts
24-Nov-19 18:44 33.975684 -117.162065 189 11428ft 339kts
24-Nov-19 18:45 33.890495 -117.173078 185 10984ft 298kts
24-Nov-19 18:46 33.809626 -117.183090 197 10995ft 287kts
24-Nov-19 18:47 33.777856 -117.262340 263 10025ft 287kts
24-Nov-19 18:48 33.779398 -117.358744 281 8503ft 288kts
24-Nov-19 18:49 33.805688 -117.448581 291 7115ft 278kts
24-Nov-19 18:50 33.829871 -117.527464 284 6275ft 215kts
24-Nov-19 18:51 33.840850 -117.593002 282 5987ft 192kts
24-Nov-19 18:52 33.850893 -117.656109 277 6207ft 199kts
24-Nov-19 18:53 33.855628 -117.724101 277 5221ft 205kts
24-Nov-19 18:54 33.823524 -117.774323 208 3766ft 213kts
24-Nov-19 18:55 33.773215 -117.806263 209 2579ft 187kts
24-Nov-19 18:56 33.731659 -117.833225 208 1227ft 151kts
24-Nov-19 18:57 33.697745 -117.854837 208 457ft 135kts
24-Nov-19 18:58 33.669394 -117.872821 208 65ft 37kts
24-Nov-19 18:59 33.668623 -117.871426 40 65ft 8kts
24-Nov-19 19:00 33.670537 -117.869432 40 65ft 10kts
24-Nov-19 19:01 33.673597 -117.866771 30 65ft 16kts
24-Nov-19 19:02 33.677627 -117.864229 30 65ft 7kts

Navigation Log

Ident Type
Flight plan parsing failed, navigation log unavailable